^^
Station Historical Data
 
Daily Summary for July 27, 2017 Units:  Both    English   Metric
« Previous Day
Next Day »
Daily Weekly Monthly Yearly Custom
  Current: High: Low: Average:
Temperature: 85.8 °F /  29.9 °C 89.9 °F /  32.2 °C 81.1 °F /  27.3 °C 85.1 °F /  29.5 °C
Dew Point: 63.2 °F /  17.3 °C 66.6 °F /  19.2 °C 60.1 °F /  15.6 °C 63.5 °F /  17.5 °C
Humidity: 47% 58% 42% 49%
Wind Speed: 0.0mph /  0km/h 0.0mph /  0km/h - 0mph /  0km/h
Wind Gust: 0.0mph /  0km/h 0.0mph /  0km/h - -
WindCalm - - North
Pressure: 29.90 in /  1012.4 hPa 29.90 in /  1012.4 hPa 29.84 in /  1010.4 hPa -
Precipitation: 0.00 in /  0 mm      
Historical Graphs
 
 
Tabular Data for July 27, 2017
Time Temperature Dew Point Pressure Wind Wind Speed Wind Gust Humidity Rainfall Rate (Hourly) solar Conditions
00:03 89.3 °F /  31.8 °C 65.2 °F /  18.4 °C 29.86in /  1011.1hPa Calm     45% 0.00in /  0mm WeatherDisplay:10.37 W/m2 CLR
00:08 89.3 °F /  31.8 °C 65.2 °F /  18.4 °C 29.86in /  1011.1hPa Calm     45% 0.00in /  0mm WeatherDisplay:10.37 W/m2 CLR
00:13 89.4 °F /  31.9 °C 65.3 °F /  18.5 °C 29.85in /  1010.7hPa Calm     45% 0.00in /  0mm WeatherDisplay:10.37 W/m2 CLR
00:18 89.7 °F /  32.1 °C 64.2 °F /  17.9 °C 29.85in /  1010.7hPa Calm     43% 0.00in /  0mm WeatherDisplay:10.37 W/m2 CLR
00:23 89.9 °F /  32.2 °C 64.4 °F /  18 °C 29.85in /  1010.7hPa Calm     43% 0.00in /  0mm WeatherDisplay:10.37 W/m2 CLR
00:29 89.9 °F /  32.2 °C 64.4 °F /  18 °C 29.85in /  1010.7hPa Calm     43% 0.00in /  0mm WeatherDisplay:10.37 W/m2 CLR
00:34 89.7 °F /  32.1 °C 64.9 °F /  18.3 °C 29.85in /  1010.7hPa Calm     44% 0.00in /  0mm WeatherDisplay:10.37 W/m2 CLR
00:39 88.9 °F /  31.6 °C 64.8 °F /  18.2 °C 29.85in /  1010.7hPa Calm     45% 0.00in /  0mm WeatherDisplay:10.37 W/m2 CLR
00:44 88.8 °F /  31.6 °C 64.1 °F /  17.8 °C 29.85in /  1010.7hPa Calm     44% 0.00in /  0mm WeatherDisplay:10.37 W/m2 CLR
00:49 88.9 °F /  31.6 °C 64.2 °F /  17.9 °C 29.85in /  1010.7hPa Calm     44% 0.00in /  0mm WeatherDisplay:10.37 W/m2 CLR
00:54 88.3 °F /  31.3 °C 64.3 °F /  17.9 °C 29.85in /  1010.7hPa Calm     45% 0.00in /  0mm WeatherDisplay:10.37 W/m2 CLR
00:59 87.7 °F /  30.9 °C 64.4 °F /  18 °C 29.84in /  1010.4hPa Calm     46% 0.00in /  0mm WeatherDisplay:10.37 W/m2 CLR
01:04 87.9 °F /  31.1 °C 64.5 °F /  18.1 °C 29.84in /  1010.4hPa Calm     46% 0.00in /  0mm WeatherDisplay:10.37 W/m2 CLR
01:09 88.1 °F /  31.2 °C 64.7 °F /  18.2 °C 29.84in /  1010.4hPa Calm     46% 0.00in /  0mm WeatherDisplay:10.37 W/m2 CLR
01:14 88.1 °F /  31.2 °C 65.3 °F /  18.5 °C 29.85in /  1010.7hPa Calm     47% 0.00in /  0mm WeatherDisplay:10.37 W/m2 CLR
01:19 87.5 °F /  30.8 °C 66.0 °F /  18.9 °C 29.85in /  1010.7hPa Calm     49% 0.00in /  0mm WeatherDisplay:10.37 W/m2 CLR
01:24 87.0 °F /  30.6 °C 65.5 °F /  18.6 °C 29.85in /  1010.7hPa Calm     49% 0.00in /  0mm WeatherDisplay:10.37 W/m2 CLR
01:29 86.8 °F /  30.4 °C 65.3 °F /  18.5 °C 29.85in /  1010.7hPa Calm     49% 0.00in /  0mm WeatherDisplay:10.37 W/m2 CLR
01:34 86.9 °F /  30.5 °C 66.0 °F /  18.9 °C 29.85in /  1010.7hPa Calm     50% 0.00in /  0mm WeatherDisplay:10.37 W/m2 CLR
01:39 86.9 °F /  30.5 °C 66.6 °F /  19.2 °C 29.85in /  1010.7hPa Calm     51% 0.00in /  0mm WeatherDisplay:10.37 W/m2 CLR
01:44 86.5 °F /  30.3 °C 65.1 °F /  18.4 °C 29.85in /  1010.7hPa Calm     49% 0.00in /  0mm WeatherDisplay:10.37 W/m2 CLR
01:49 86.2 °F /  30.1 °C 63.6 °F /  17.6 °C 29.85in /  1010.7hPa Calm     47% 0.00in /  0mm WeatherDisplay:10.37 W/m2 CLR
01:54 86.2 °F /  30.1 °C 64.2 °F /  17.9 °C 29.85in /  1010.7hPa Calm     48% 0.00in /  0mm WeatherDisplay:10.37 W/m2 CLR
01:59 86.1 °F /  30.1 °C 64.7 °F /  18.2 °C 29.85in /  1010.7hPa Calm     49% 0.00in /  0mm WeatherDisplay:10.37 W/m2 CLR
02:05 85.9 °F /  29.9 °C 64.5 °F /  18.1 °C 29.85in /  1010.7hPa Calm     49% 0.00in /  0mm WeatherDisplay:10.37 W/m2 CLR
02:10 85.8 °F /  29.9 °C 65.0 °F /  18.3 °C 29.85in /  1010.7hPa Calm     50% 0.00in /  0mm WeatherDisplay:10.37 W/m2 CLR
02:15 85.6 °F /  29.8 °C 65.4 °F /  18.6 °C 29.85in /  1010.7hPa Calm     51% 0.00in /  0mm WeatherDisplay:10.37 W/m2 CLR
02:20 85.4 °F /  29.7 °C 64.6 °F /  18.1 °C 29.85in /  1010.7hPa Calm     50% 0.00in /  0mm WeatherDisplay:10.37 W/m2 CLR
02:25 85.4 °F /  29.7 °C 65.7 °F /  18.7 °C 29.85in /  1010.7hPa Calm     52% 0.00in /  0mm WeatherDisplay:10.37 W/m2 CLR
02:30 85.2 °F /  29.6 °C 65.6 °F /  18.7 °C 29.85in /  1010.7hPa Calm     52% 0.00in /  0mm WeatherDisplay:10.37 W/m2 CLR
02:35 85.3 °F /  29.6 °C 62.8 °F /  17.1 °C 29.85in /  1010.7hPa Calm     47% 0.00in /  0mm WeatherDisplay:10.37 W/m2 CLR
02:40 86.0 °F /  30 °C 62.2 °F /  16.8 °C 29.85in /  1010.7hPa Calm     45% 0.00in /  0mm WeatherDisplay:10.37 W/m2 CLR
02:45 86.2 °F /  30.1 °C 61.7 °F /  16.5 °C 29.86in /  1011.1hPa Calm     44% 0.00in /  0mm WeatherDisplay:10.37 W/m2 CLR
02:50 86.4 °F /  30.2 °C 61.9 °F /  16.6 °C 29.86in /  1011.1hPa Calm     44% 0.00in /  0mm WeatherDisplay:10.37 W/m2 CLR
02:55 86.4 °F /  30.2 °C 61.9 °F /  16.6 °C 29.86in /  1011.1hPa Calm     44% 0.00in /  0mm WeatherDisplay:10.37 W/m2 CLR
03:00 86.3 °F /  30.2 °C 62.5 °F /  16.9 °C 29.85in /  1010.7hPa Calm     45% 0.00in /  0mm WeatherDisplay:10.37 W/m2 CLR
03:05 86.1 °F /  30.1 °C 61.6 °F /  16.4 °C 29.85in /  1010.7hPa Calm     44% 0.00in /  0mm WeatherDisplay:10.37 W/m2 CLR
03:10 85.8 °F /  29.9 °C 62.0 °F /  16.7 °C 29.85in /  1010.7hPa Calm     45% 0.00in /  0mm WeatherDisplay:10.37 W/m2 CLR
03:12 85.6 °F /  29.8 °C 61.8 °F /  16.6 °C 29.86in /  1011.1hPa Calm     45% 0.00in /  0mm WeatherDisplay:10.37 W/m2 CLR
03:17 85.7 °F /  29.8 °C 60.6 °F /  15.9 °C 29.86in /  1011.1hPa Calm     43% 0.00in /  0mm WeatherDisplay:10.37 W/m2 CLR
03:22 85.8 °F /  29.9 °C 60.7 °F /  15.9 °C 29.86in /  1011.1hPa Calm     43% 0.00in /  0mm WeatherDisplay:10.37 W/m2 CLR
03:27 86.1 °F /  30.1 °C 61.0 °F /  16.1 °C 29.86in /  1011.1hPa Calm     43% 0.00in /  0mm WeatherDisplay:10.37 W/m2 CLR
03:32 86.0 °F /  30 °C 60.9 °F /  16.1 °C 29.86in /  1011.1hPa Calm     43% 0.00in /  0mm WeatherDisplay:10.37 W/m2 CLR
03:37 85.5 °F /  29.7 °C 60.4 °F /  15.8 °C 29.86in /  1011.1hPa Calm     43% 0.00in /  0mm WeatherDisplay:10.37 W/m2 CLR
03:42 85.8 °F /  29.9 °C 60.1 °F /  15.6 °C 29.86in /  1011.1hPa Calm     42% 0.00in /  0mm WeatherDisplay:10.37 W/m2 CLR
03:47 86.2 °F /  30.1 °C 60.4 °F /  15.8 °C 29.86in /  1011.1hPa Calm     42% 0.00in /  0mm WeatherDisplay:10.37 W/m2 CLR
03:52 86.3 °F /  30.2 °C 60.5 °F /  15.8 °C 29.86in /  1011.1hPa Calm     42% 0.00in /  0mm WeatherDisplay:10.37 W/m2 CLR
03:57 86.2 °F /  30.1 °C 60.4 °F /  15.8 °C 29.86in /  1011.1hPa Calm     42% 0.00in /  0mm WeatherDisplay:10.37 W/m2 CLR
04:03 85.6 °F /  29.8 °C 60.5 °F /  15.8 °C 29.86in /  1011.1hPa Calm     43% 0.00in /  0mm WeatherDisplay:10.37 W/m2 CLR
04:08 85.4 °F /  29.7 °C 60.4 °F /  15.8 °C 29.86in /  1011.1hPa Calm     43% 0.00in /  0mm WeatherDisplay:10.37 W/m2 CLR
04:13 84.8 °F /  29.3 °C 61.7 °F /  16.5 °C 29.87in /  1011.4hPa Calm     46% 0.00in /  0mm WeatherDisplay:10.37 W/m2 CLR
04:18 84.3 °F /  29.1 °C 61.9 °F /  16.6 °C 29.87in /  1011.4hPa Calm     47% 0.00in /  0mm WeatherDisplay:10.37 W/m2 CLR
04:23 83.9 °F /  28.8 °C 62.1 °F /  16.7 °C 29.87in /  1011.4hPa Calm     48% 0.00in /  0mm WeatherDisplay:10.37 W/m2 CLR
04:28 83.4 °F /  28.6 °C 62.2 °F /  16.8 °C 29.88in /  1011.7hPa Calm     49% 0.00in /  0mm WeatherDisplay:10.37 W/m2 CLR
04:33 82.9 °F /  28.3 °C 62.4 °F /  16.9 °C 29.88in /  1011.7hPa Calm     50% 0.00in /  0mm WeatherDisplay:10.37 W/m2 CLR
04:38 82.7 °F /  28.2 °C 62.7 °F /  17.1 °C 29.88in /  1011.7hPa Calm     51% 0.00in /  0mm WeatherDisplay:10.37 W/m2 CLR
04:43 82.8 °F /  28.2 °C 62.3 °F /  16.8 °C 29.88in /  1011.7hPa Calm     50% 0.00in /  0mm WeatherDisplay:10.37 W/m2 CLR
04:48 82.8 °F /  28.2 °C 62.3 °F /  16.8 °C 29.88in /  1011.7hPa Calm     50% 0.00in /  0mm WeatherDisplay:10.37 W/m2 CLR
04:53 82.6 °F /  28.1 °C 62.6 °F /  17 °C 29.88in /  1011.7hPa Calm     51% 0.00in /  0mm WeatherDisplay:10.37 W/m2 CLR
04:59 82.6 °F /  28.1 °C 62.6 °F /  17 °C 29.89in /  1012.1hPa Calm     51% 0.00in /  0mm WeatherDisplay:10.37 W/m2 CLR
05:04 82.4 °F /  28 °C 62.5 °F /  16.9 °C 29.89in /  1012.1hPa Calm     51% 0.00in /  0mm WeatherDisplay:10.37 W/m2 CLR
05:09 82.3 °F /  27.9 °C 62.9 °F /  17.2 °C 29.89in /  1012.1hPa Calm     52% 0.00in /  0mm WeatherDisplay:10.37 W/m2 CLR
05:14 82.5 °F /  28.1 °C 63.1 °F /  17.3 °C 29.89in /  1012.1hPa Calm     52% 0.00in /  0mm WeatherDisplay:10.37 W/m2 CLR
05:19 82.3 °F /  27.9 °C 63.5 °F /  17.5 °C 29.89in /  1012.1hPa Calm     53% 0.00in /  0mm WeatherDisplay:10.37 W/m2 CLR
05:24 81.8 °F /  27.7 °C 63.0 °F /  17.2 °C 29.89in /  1012.1hPa Calm     53% 0.00in /  0mm WeatherDisplay:10.37 W/m2 CLR
05:29 81.5 °F /  27.5 °C 63.3 °F /  17.4 °C 29.90in /  1012.4hPa Calm     54% 0.00in /  0mm WeatherDisplay:10.37 W/m2 CLR
05:34 81.4 °F /  27.4 °C 63.7 °F /  17.6 °C 29.90in /  1012.4hPa Calm     55% 0.00in /  0mm WeatherDisplay:10.37 W/m2 CLR
05:39 81.4 °F /  27.4 °C 63.7 °F /  17.6 °C 29.90in /  1012.4hPa Calm     55% 0.00in /  0mm WeatherDisplay:10.37 W/m2 CLR
05:44 81.1 °F /  27.3 °C 63.9 °F /  17.7 °C 29.90in /  1012.4hPa Calm     56% 0.00in /  0mm WeatherDisplay:10.37 W/m2 CLR
05:49 81.1 °F /  27.3 °C 64.4 °F /  18 °C 29.90in /  1012.4hPa Calm     57% 0.00in /  0mm WeatherDisplay:10.37 W/m2 CLR
05:55 81.4 °F /  27.4 °C 63.7 °F /  17.6 °C 29.90in /  1012.4hPa Calm     55% 0.00in /  0mm WeatherDisplay:10.37 W/m2 CLR
06:00 81.7 °F /  27.6 °C 63.4 °F /  17.4 °C 29.90in /  1012.4hPa Calm     54% 0.00in /  0mm WeatherDisplay:10.37 W/m2 CLR
06:05 81.9 °F /  27.7 °C 63.6 °F /  17.6 °C 29.90in /  1012.4hPa Calm     54% 0.00in /  0mm WeatherDisplay:10.37 W/m2 CLR
06:10 81.7 °F /  27.6 °C 64.5 °F /  18.1 °C 29.90in /  1012.4hPa Calm     56% 0.00in /  0mm WeatherDisplay:10.37 W/m2 CLR
06:15 81.5 °F /  27.5 °C 64.3 °F /  17.9 °C 29.90in /  1012.4hPa Calm     56% 0.00in /  0mm WeatherDisplay:10.37 W/m2 CLR
06:20 81.5 °F /  27.5 °C 64.8 °F /  18.2 °C 29.90in /  1012.4hPa Calm     57% 0.00in /  0mm WeatherDisplay:10.37 W/m2 CLR
06:25 81.9 °F /  27.7 °C 65.2 °F /  18.4 °C 29.90in /  1012.4hPa Calm     57% 0.00in /  0mm WeatherDisplay:10.37 W/m2 CLR
06:30 82.3 °F /  27.9 °C 65.5 °F /  18.6 °C 29.90in /  1012.4hPa Calm     57% 0.00in /  0mm WeatherDisplay:10.37 W/m2 CLR
06:35 82.3 °F /  27.9 °C 65.5 °F /  18.6 °C 29.90in /  1012.4hPa Calm     57% 0.00in /  0mm WeatherDisplay:10.37 W/m2 CLR
06:40 82.6 °F /  28.1 °C 66.3 °F /  19.1 °C 29.90in /  1012.4hPa Calm     58% 0.00in /  0mm WeatherDisplay:10.37 W/m2 CLR
06:45 83.0 °F /  28.3 °C 66.2 °F /  19 °C 29.90in /  1012.4hPa Calm     57% 0.00in /  0mm WeatherDisplay:10.37 W/m2 CLR
06:50 83.6 °F /  28.7 °C 65.2 °F /  18.4 °C 29.90in /  1012.4hPa Calm     54% 0.00in /  0mm WeatherDisplay:10.37 W/m2 CLR
06:55 84.1 °F /  28.9 °C 65.1 °F /  18.4 °C 29.90in /  1012.4hPa Calm     53% 0.00in /  0mm WeatherDisplay:10.37 W/m2 CLR
07:00 85.1 °F /  29.5 °C 63.2 °F /  17.3 °C 29.90in /  1012.4hPa Calm     48% 0.00in /  0mm WeatherDisplay:10.37 W/m2 CLR
07:05 85.3 °F /  29.6 °C 64.0 °F /  17.8 °C 29.90in /  1012.4hPa Calm     49% 0.00in /  0mm WeatherDisplay:10.37 W/m2 CLR
07:11 85.8 °F /  29.9 °C 63.2 °F /  17.3 °C 29.90in /  1012.4hPa Calm     47% 0.00in /  0mm WeatherDisplay:10.37 W/m2 CLR
Youngtown, Arizona, USA
Compliments of Weather Underground - 2.5 mb